createdAt,value
2017-09-07T00:00:03.633Z,0
2017-09-07T00:01:13.977Z,0
2017-09-07T00:02:24.056Z,0
2017-09-07T00:03:34.394Z,0
2017-09-07T00:04:44.430Z,0
2017-09-07T00:05:54.767Z,0
2017-09-07T00:07:05.147Z,0
2017-09-07T00:08:15.167Z,0
2017-09-07T00:09:25.186Z,0
2017-09-07T00:10:35.533Z,0
2017-09-07T00:11:45.253Z,0
2017-09-07T00:12:55.586Z,0
2017-09-07T00:14:05.924Z,0
2017-09-07T00:15:16.260Z,0
2017-09-07T00:16:26.616Z,0
2017-09-07T00:17:36.960Z,0
2017-09-07T00:18:47.297Z,0
2017-09-07T00:19:58.787Z,0
2017-09-07T00:21:09.142Z,0
2017-09-07T00:22:19.468Z,0
2017-09-07T00:23:29.836Z,0
2017-09-07T00:24:39.858Z,0
2017-09-07T00:25:50.232Z,0
2017-09-07T00:27:00.577Z,0
2017-09-07T00:28:10.921Z,0
2017-09-07T00:29:21.276Z,0
2017-09-07T00:30:31.299Z,0
2017-09-07T00:31:41.684Z,0
2017-09-07T00:32:51.696Z,0
2017-09-07T00:34:01.729Z,0
2017-09-07T00:35:12.079Z,0
2017-09-07T00:36:22.448Z,0
2017-09-07T00:37:32.524Z,0
2017-09-07T00:38:42.557Z,0
2017-09-07T00:39:52.907Z,0
2017-09-07T00:41:02.936Z,0
2017-09-07T00:42:13.265Z,0
2017-09-07T00:43:23.342Z,0
2017-09-07T00:44:33.366Z,0
2017-09-07T00:45:43.401Z,0
2017-09-07T00:46:53.729Z,0
2017-09-07T00:48:03.752Z,0
2017-09-07T00:49:14.154Z,0
2017-09-07T00:50:24.497Z,0
2017-09-07T00:51:34.848Z,0
2017-09-07T00:52:44.872Z,0
2017-09-07T00:53:55.214Z,0
2017-09-07T00:55:05.745Z,0
2017-09-07T00:56:16.096Z,0
2017-09-07T00:57:26.444Z,0
2017-09-07T00:58:36.791Z,0
2017-09-07T00:59:47.125Z,0
2017-09-07T01:00:57.458Z,0
2017-09-07T01:02:07.790Z,0
2017-09-07T01:03:18.172Z,0
2017-09-07T01:04:28.515Z,0
2017-09-07T01:05:38.551Z,0
2017-09-07T01:06:48.897Z,0
2017-09-07T01:07:59.254Z,0
2017-09-07T01:09:09.596Z,0
2017-09-07T01:10:20.513Z,0
2017-09-07T01:11:30.863Z,0
2017-09-07T01:12:41.264Z,0
2017-09-07T01:13:51.623Z,0
2017-09-07T01:15:01.659Z,0
2017-09-07T01:16:11.999Z,0
2017-09-07T01:17:22.039Z,0
2017-09-07T01:18:32.107Z,0
2017-09-07T01:19:42.456Z,0
2017-09-07T01:20:52.485Z,0
2017-09-07T01:22:02.821Z,0
2017-09-07T01:23:13.162Z,0
2017-09-07T01:24:23.759Z,0
2017-09-07T01:25:34.104Z,0
2017-09-07T01:26:43.809Z,0
2017-09-07T01:27:54.169Z,0
2017-09-07T01:29:04.510Z,0
2017-09-07T01:30:14.913Z,0
2017-09-07T01:31:25.260Z,0
2017-09-07T01:32:36.144Z,0
2017-09-07T01:33:46.483Z,0
2017-09-07T01:34:56.835Z,0
2017-09-07T01:36:07.177Z,0
2017-09-07T01:37:19.267Z,0
2017-09-07T01:38:29.305Z,0
2017-09-07T01:39:39.643Z,0
2017-09-07T01:40:49.359Z,0
2017-09-07T01:41:59.404Z,0
2017-09-07T01:43:09.441Z,0
2017-09-07T01:44:19.141Z,0
2017-09-07T01:45:29.472Z,0
2017-09-07T01:46:39.798Z,0
2017-09-07T01:47:50.144Z,0
2017-09-07T01:49:00.216Z,0
2017-09-07T01:50:10.579Z,0
2017-09-07T01:51:20.939Z,0
2017-09-07T01:52:31.315Z,0
2017-09-07T01:53:41.711Z,0
2017-09-07T01:54:51.901Z,0
2017-09-07T01:56:02.241Z,0
2017-09-07T01:57:12.272Z,0
2017-09-07T01:58:22.614Z,0
2017-09-07T01:59:32.373Z,0
2017-09-07T02:00:42.714Z,0
2017-09-07T02:01:52.753Z,0
2017-09-07T02:03:03.097Z,0
2017-09-07T02:04:13.134Z,0
2017-09-07T02:05:23.492Z,0
2017-09-07T02:06:33.837Z,0
2017-09-07T02:07:44.181Z,0
2017-09-07T02:08:54.201Z,0
2017-09-07T02:10:04.562Z,0
2017-09-07T02:11:14.587Z,0
2017-09-07T02:12:24.619Z,0
2017-09-07T02:13:34.973Z,0
2017-09-07T02:14:45.304Z,0
2017-09-07T02:15:55.664Z,0
2017-09-07T02:17:05.758Z,0
2017-09-07T02:18:16.144Z,0
2017-09-07T02:19:26.498Z,0
2017-09-07T02:20:36.853Z,0
2017-09-07T02:21:46.879Z,0
2017-09-07T02:22:57.277Z,0
2017-09-07T02:24:07.607Z,0
2017-09-07T02:25:17.641Z,0
2017-09-07T02:26:27.366Z,0
2017-09-07T02:27:37.713Z,0
2017-09-07T02:28:48.954Z,0
2017-09-07T02:29:59.304Z,0
2017-09-07T02:31:09.645Z,0
2017-09-07T02:32:19.761Z,0
2017-09-07T02:33:30.099Z,0
2017-09-07T02:34:40.749Z,0
2017-09-07T02:35:50.782Z,0
2017-09-07T02:37:01.138Z,0
2017-09-07T02:38:11.164Z,0
2017-09-07T02:39:21.186Z,0
2017-09-07T02:40:31.571Z,0
2017-09-07T02:41:41.609Z,0
2017-09-07T02:42:51.942Z,0
2017-09-07T02:44:01.963Z,0
2017-09-07T02:45:12.351Z,0
2017-09-07T02:46:22.373Z,0
2017-09-07T02:47:32.404Z,0
2017-09-07T02:48:42.758Z,0
2017-09-07T02:49:53.103Z,0
2017-09-07T02:51:03.609Z,0
2017-09-07T02:52:14.009Z,0
2017-09-07T02:53:24.029Z,0
2017-09-07T02:54:34.374Z,0
2017-09-07T02:55:44.717Z,0
2017-09-07T02:56:55.048Z,0
2017-09-07T02:58:04.764Z,0
2017-09-07T02:59:14.801Z,0
2017-09-07T03:00:24.828Z,0
2017-09-07T03:01:35.170Z,0
2017-09-07T03:33:34.751Z,0
2017-09-07T03:34:45.071Z,0
2017-09-07T03:35:55.406Z,0
2017-09-07T03:37:05.724Z,0
2017-09-07T03:38:15.746Z,0
2017-09-07T03:39:25.807Z,0
2017-09-07T03:40:35.827Z,0
2017-09-07T03:41:45.859Z,0
2017-09-07T03:42:56.207Z,0
2017-09-07T03:44:06.534Z,0
2017-09-07T03:45:16.294Z,0
2017-09-07T03:46:26.634Z,0
2017-09-07T03:47:36.974Z,0
2017-09-07T03:48:46.997Z,0
2017-09-07T03:49:57.332Z,0
2017-09-07T03:51:09.506Z,0
2017-09-07T03:52:19.842Z,0
2017-09-07T03:53:30.185Z,0
2017-09-07T03:54:40.210Z,4
2017-09-07T03:55:52.806Z,4
2017-09-07T03:57:02.921Z,0
2017-09-07T03:58:13.306Z,4
2017-09-07T03:59:23.642Z,4
2017-09-07T04:00:33.999Z,4
2017-09-07T04:01:44.351Z,8
2017-09-07T04:02:54.743Z,8
2017-09-07T04:04:05.084Z,8
2017-09-07T04:05:15.107Z,12
2017-09-07T04:06:25.463Z,12
2017-09-07T04:07:35.489Z,12
2017-09-07T04:08:45.587Z,20
2017-09-07T04:09:55.646Z,20
2017-09-07T04:11:05.987Z,24
2017-09-07T04:12:16.315Z,32
2017-09-07T04:13:26.038Z,36
2017-09-07T04:14:36.440Z,40
2017-09-07T04:15:46.808Z,44
2017-09-07T04:16:57.174Z,52
2017-09-07T04:18:07.515Z,60
2017-09-07T04:19:17.528Z,68
2017-09-07T04:20:29.331Z,76
2017-09-07T04:21:39.718Z,88
2017-09-07T04:22:50.060Z,100
2017-09-07T04:24:00.400Z,112
2017-09-07T04:25:10.429Z,128
2017-09-07T04:26:20.778Z,144
2017-09-07T04:27:31.118Z,160
2017-09-07T04:28:41.140Z,184
2017-09-07T04:29:51.477Z,208
2017-09-07T04:31:01.504Z,232
2017-09-07T04:32:11.885Z,260
2017-09-07T04:33:22.260Z,292
2017-09-07T04:34:31.965Z,328
2017-09-07T04:35:42.323Z,368
2017-09-07T04:36:52.367Z,412
2017-09-07T04:38:02.434Z,468
2017-09-07T04:39:12.792Z,520
2017-09-07T04:40:22.821Z,576
2017-09-07T04:41:32.545Z,688
2017-09-07T04:42:42.587Z,708
2017-09-07T04:43:52.619Z,768
2017-09-07T04:45:02.650Z,1020
2017-09-07T04:46:12.997Z,1336
2017-09-07T04:47:23.329Z,1188
2017-09-07T04:48:33.666Z,1092
2017-09-07T04:49:43.753Z,1216
2017-09-07T04:50:54.098Z,1608
2017-09-07T04:52:04.125Z,2028
2017-09-07T04:53:14.147Z,2324
2017-09-07T04:54:24.174Z,2744
2017-09-07T04:55:34.561Z,3048
2017-09-07T04:56:44.588Z,3252
2017-09-07T04:57:54.940Z,3288
2017-09-07T04:59:05.286Z,3536
2017-09-07T05:00:15.292Z,3668
2017-09-07T05:01:25.333Z,3480
2017-09-07T05:02:35.658Z,3724
2017-09-07T05:03:45.685Z,3840
2017-09-07T05:04:56.040Z,3852
2017-09-07T05:06:06.380Z,4528
2017-09-07T05:07:16.773Z,4796
2017-09-07T05:08:26.826Z,4448
2017-09-07T05:09:37.190Z,3968
2017-09-07T05:10:47.530Z,4684
2017-09-07T05:11:56.916Z,5304
2017-09-07T05:13:06.934Z,4644
2017-09-07T05:14:17.511Z,3236
2017-09-07T05:15:27.842Z,2620
2017-09-07T05:16:37.861Z,2612
2017-09-07T05:17:48.213Z,2636
2017-09-07T05:18:58.542Z,2624
2017-09-07T05:20:08.887Z,2672
2017-09-07T05:21:18.905Z,2712
2017-09-07T05:22:28.922Z,2744
2017-09-07T05:23:38.654Z,2768
2017-09-07T05:24:48.777Z,2808
2017-09-07T05:25:58.801Z,2868
2017-09-07T05:27:09.138Z,3028
2017-09-07T05:28:19.165Z,3476
2017-09-07T05:29:29.514Z,3900
2017-09-07T05:30:39.866Z,3988
2017-09-07T05:31:50.200Z,3892
2017-09-07T05:33:00.559Z,3520
2017-09-07T05:34:10.904Z,3112
2017-09-07T05:35:22.146Z,3016
2017-09-07T05:36:32.494Z,3024
2017-09-07T05:37:42.832Z,3020
2017-09-07T05:38:52.879Z,3072
2017-09-07T05:40:03.117Z,3448
2017-09-07T05:41:13.471Z,4196
2017-09-07T05:42:24.216Z,4476
2017-09-07T05:43:34.234Z,3768
2017-09-07T05:44:44.509Z,3496
2017-09-07T05:45:54.868Z,3472
2017-09-07T05:47:05.203Z,3896
2017-09-07T05:48:44.720Z,5424
2017-09-07T05:49:55.075Z,5936
2017-09-07T05:51:05.421Z,5152
2017-09-07T05:52:16.289Z,4112
2017-09-07T05:53:26.338Z,3644
2017-09-07T05:54:36.373Z,3680
2017-09-07T05:55:46.708Z,4436
2017-09-07T06:00:12.081Z,4072
2017-09-07T06:01:22.116Z,3324
2017-09-07T06:02:32.467Z,3252
2017-09-07T06:03:42.844Z,3132
2017-09-07T06:04:53.190Z,3080
2017-09-07T06:06:03.528Z,3132
2017-09-07T06:07:13.546Z,4004
2017-09-07T06:08:23.261Z,3168
2017-09-07T06:09:33.613Z,3124
2017-09-07T06:10:43.953Z,3112
2017-09-07T06:11:54.297Z,3216
2017-09-07T06:13:04.637Z,3364
2017-09-07T06:14:14.975Z,3816
2017-09-07T06:15:25.307Z,3508
2017-09-07T06:16:35.324Z,3868
2017-09-07T06:17:45.718Z,3900
2017-09-07T06:18:55.737Z,3880
2017-09-07T06:20:05.773Z,3904
2017-09-07T06:21:22.614Z,3900
2017-09-07T06:28:29.908Z,4188
2017-09-07T06:30:04.901Z,4196
2017-09-07T06:31:24.878Z,4200
2017-09-07T06:32:35.480Z,4088
2017-09-07T06:33:45.564Z,4144
2017-09-07T06:34:55.951Z,4196
2017-09-07T06:36:06.241Z,4004
2017-09-07T06:37:16.282Z,4148
2017-09-07T06:38:26.294Z,4152
2017-09-07T06:39:36.631Z,4244
2017-09-07T06:40:46.975Z,4180
2017-09-07T06:41:57.311Z,4172
2017-09-07T06:43:07.670Z,4204
2017-09-07T06:44:18.013Z,4232
2017-09-07T06:45:28.409Z,4240
2017-09-07T06:46:40.776Z,4128
2017-09-07T06:47:50.808Z,4224
2017-09-07T06:49:01.154Z,4324
2017-09-07T06:50:11.531Z,4356
2017-09-07T06:51:21.302Z,4260
2017-09-07T06:52:31.640Z,4408
2017-09-07T06:53:41.984Z,4316
2017-09-07T06:54:52.010Z,4520
2017-09-07T06:56:02.036Z,4576
2017-09-07T06:57:12.114Z,4636
2017-09-07T06:58:22.450Z,4404
2017-09-07T06:59:32.156Z,3892
2017-09-07T07:00:43.406Z,3752
2017-09-07T07:01:53.762Z,3836
2017-09-07T07:03:03.837Z,3860
2017-09-07T07:04:14.174Z,3696
2017-09-07T07:05:24.523Z,4604
2017-09-07T07:06:34.557Z,4716
2017-09-07T07:07:44.960Z,4624
2017-09-07T07:08:55.035Z,4168
2017-09-07T07:10:05.376Z,3812
2017-09-07T07:11:15.728Z,3872
2017-09-07T07:12:25.764Z,3732
2017-09-07T07:13:36.111Z,3560
2017-09-07T07:14:46.513Z,3512
2017-09-07T07:15:56.530Z,3528
2017-09-07T07:17:06.879Z,3412
2017-09-07T07:18:18.930Z,3248
2017-09-07T07:19:28.968Z,3236
2017-09-07T07:20:39.333Z,3208
2017-09-07T07:21:49.686Z,3328
2017-09-07T07:22:59.725Z,3464
2017-09-07T07:24:09.778Z,3556
2017-09-07T07:25:20.110Z,3236
2017-09-07T07:26:30.522Z,3144
2017-09-07T07:27:40.879Z,3192
2017-09-07T07:28:51.234Z,4596
2017-09-07T07:30:01.261Z,4672
2017-09-07T07:31:11.602Z,4856
2017-09-07T07:32:21.934Z,4900
2017-09-07T07:33:32.280Z,4972
2017-09-07T07:34:42.640Z,5028
2017-09-07T07:35:52.345Z,5112
2017-09-07T07:37:02.683Z,5056
2017-09-07T07:38:13.068Z,5048
2017-09-07T07:39:23.415Z,5108
2017-09-07T07:40:33.132Z,5184
2017-09-07T07:41:45.149Z,5280
2017-09-07T07:42:55.487Z,5388
2017-09-07T07:44:05.843Z,5436
2017-09-07T07:45:15.885Z,5592
2017-09-07T07:46:26.236Z,5728
2017-09-07T07:47:36.261Z,5860
2017-09-07T07:48:47.010Z,3856
2017-09-07T07:49:57.714Z,3916
2017-09-07T07:51:07.746Z,6064
2017-09-07T07:52:18.113Z,4452
2017-09-07T07:53:28.736Z,4108
2017-09-07T07:54:39.133Z,5912
2017-09-07T07:55:49.564Z,5004
2017-09-07T07:56:59.950Z,4176
2017-09-07T07:58:10.436Z,6576
2017-09-07T07:59:20.863Z,4520
2017-09-07T08:00:30.926Z,6852
2017-09-07T08:01:41.051Z,6948
2017-09-07T08:02:51.449Z,5028
2017-09-07T08:04:01.876Z,7028
2017-09-07T08:05:12.268Z,6932
2017-09-07T08:06:22.643Z,6868
2017-09-07T08:07:33.115Z,6700
2017-09-07T08:08:43.513Z,6996
2017-09-07T08:09:53.888Z,4500
2017-09-07T08:11:03.625Z,5304
2017-09-07T08:12:14.016Z,4660
2017-09-07T08:13:24.380Z,7268
2017-09-07T08:14:34.744Z,7288
2017-09-07T08:15:45.093Z,7168
2017-09-07T08:16:55.130Z,7128
2017-09-07T08:18:05.476Z,5844
2017-09-07T08:19:15.825Z,7192
2017-09-07T08:20:25.857Z,4528
2017-09-07T08:21:36.215Z,4648
2017-09-07T08:22:46.632Z,7420
2017-09-07T08:23:56.978Z,4904
2017-09-07T08:25:07.061Z,4804
2017-09-07T08:26:17.386Z,5092
2017-09-07T08:27:27.730Z,7668
2017-09-07T08:28:38.105Z,7520
2017-09-07T08:29:48.475Z,7008
2017-09-07T08:30:58.506Z,5468
2017-09-07T08:32:08.866Z,4552
2017-09-07T08:33:18.908Z,4364
2017-09-07T08:34:29.004Z,7060
2017-09-07T08:35:39.350Z,7148
2017-09-07T08:36:49.699Z,7168
2017-09-07T08:38:00.045Z,7276
2017-09-07T08:39:10.081Z,5632
2017-09-07T08:40:20.487Z,8064
2017-09-07T08:41:30.855Z,5224
2017-09-07T08:42:41.221Z,7604
2017-09-07T08:43:51.254Z,7024
2017-09-07T08:45:01.602Z,4764
2017-09-07T08:46:12.001Z,6244
2017-09-07T08:47:22.031Z,7520
2017-09-07T08:48:32.400Z,7432
2017-09-07T08:49:42.764Z,5032
2017-09-07T08:50:52.828Z,8100
2017-09-07T08:52:02.917Z,7836
2017-09-07T08:53:12.965Z,8184
2017-09-07T08:54:23.321Z,5320
2017-09-07T08:55:33.678Z,8596
2017-09-07T08:56:43.718Z,5960
2017-09-07T08:57:54.110Z,5788
2017-09-07T08:59:04.481Z,6040
2017-09-07T09:00:14.528Z,5208
2017-09-07T09:01:25.093Z,5424
2017-09-07T09:02:35.666Z,5624
2017-09-07T09:03:46.069Z,5812
2017-09-07T09:04:56.101Z,5772
2017-09-07T09:06:08.451Z,5616
2017-09-07T09:07:18.825Z,5944
2017-09-07T09:08:29.215Z,8600
2017-09-07T09:09:39.322Z,8364
2017-09-07T09:10:49.686Z,7224
2017-09-07T09:11:59.407Z,6400
2017-09-07T09:13:09.782Z,8368
2017-09-07T09:14:20.172Z,5660
2017-09-07T09:15:30.742Z,5640
2017-09-07T09:16:40.780Z,6436
2017-09-07T09:17:50.814Z,7056
2017-09-07T09:19:00.535Z,5844
2017-09-07T09:20:10.888Z,7804
2017-09-07T09:21:21.294Z,5668
2017-09-07T09:22:31.627Z,6464
2017-09-07T09:23:41.992Z,4972
2017-09-07T09:24:52.344Z,4632
2017-09-07T09:26:02.707Z,7580
2017-09-07T09:27:13.125Z,4888
2017-09-07T09:28:25.425Z,4808
2017-09-07T09:29:35.467Z,4928
2017-09-07T09:30:45.834Z,5856
2017-09-07T09:31:55.892Z,5052
2017-09-07T09:33:06.117Z,5036
2017-09-07T09:34:16.141Z,5156
2017-09-07T09:35:26.490Z,5024
2017-09-07T09:36:38.889Z,8284
2017-09-07T09:37:49.224Z,8208
2017-09-07T09:38:59.621Z,8516
2017-09-07T09:40:09.345Z,8704
2017-09-07T09:41:19.381Z,8828
2017-09-07T09:42:29.754Z,8940
2017-09-07T09:43:39.800Z,9080
2017-09-07T09:44:53.017Z,9288
2017-09-07T09:46:03.053Z,9724
2017-09-07T09:47:13.421Z,10084
2017-09-07T09:48:25.326Z,10160
2017-09-07T09:49:37.898Z,9584
2017-09-07T09:50:48.245Z,9824
2017-09-07T09:51:57.983Z,9824
2017-09-07T09:53:08.350Z,9588
2017-09-07T09:54:18.708Z,6488
2017-09-07T09:55:32.114Z,6036
2017-09-07T09:56:42.461Z,6212
2017-09-07T09:57:52.795Z,5884
2017-09-07T09:59:02.816Z,5476
2017-09-07T10:00:12.915Z,5300
2017-09-07T10:01:22.952Z,5172
2017-09-07T10:02:33.372Z,5104
2017-09-07T10:03:43.403Z,4904
2017-09-07T10:04:53.418Z,4904
2017-09-07T10:06:03.782Z,5060
2017-09-07T10:07:13.823Z,5144
2017-09-07T10:08:24.190Z,5020
2017-09-07T10:09:34.555Z,4796
2017-09-07T10:10:44.957Z,4756
2017-09-07T10:11:55.322Z,4820
2017-09-07T10:13:05.057Z,4872
2017-09-07T10:14:15.164Z,4868
2017-09-07T10:15:25.552Z,4960
2017-09-07T10:16:35.926Z,5024
2017-09-07T10:17:46.297Z,4928
2017-09-07T10:18:56.332Z,4768
2017-09-07T10:20:06.445Z,4624
2017-09-07T10:21:16.817Z,4532
2017-09-07T10:22:27.200Z,4552
2017-09-07T10:23:37.574Z,4520
2017-09-07T10:24:47.592Z,4552
2017-09-07T10:25:57.685Z,4568
2017-09-07T10:27:08.074Z,4608
2017-09-07T10:28:17.797Z,4692
2017-09-07T10:29:28.159Z,4708
2017-09-07T10:30:38.192Z,4704
2017-09-07T10:31:48.276Z,4676
2017-09-07T10:32:58.624Z,4948
2017-09-07T10:34:08.960Z,4384
2017-09-07T10:35:19.309Z,3984
2017-09-07T10:36:29.676Z,3600
2017-09-07T10:37:39.922Z,3268
2017-09-07T10:38:49.960Z,3024
2017-09-07T10:40:00.334Z,2860
2017-09-07T10:41:10.715Z,2780
2017-09-07T10:42:21.063Z,2772
2017-09-07T10:43:31.424Z,2792
2017-09-07T10:44:41.779Z,2812
2017-09-07T10:45:52.124Z,2816
2017-09-07T10:47:02.172Z,2792
2017-09-07T10:48:12.534Z,2760
2017-09-07T10:49:22.903Z,2764
2017-09-07T10:50:33.263Z,2816
2017-09-07T10:51:43.622Z,2828
2017-09-07T10:52:55.773Z,2864
2017-09-07T10:54:05.845Z,2984
2017-09-07T10:55:16.216Z,3164
2017-09-07T10:56:26.243Z,3408
2017-09-07T10:57:36.586Z,3724
2017-09-07T10:58:46.629Z,4100
2017-09-07T10:59:56.987Z,4400
2017-09-07T11:01:07.083Z,4692
2017-09-07T11:02:17.452Z,5080
2017-09-07T11:03:27.829Z,5640
2017-09-07T11:04:38.195Z,6540
2017-09-07T11:05:48.576Z,6840
2017-09-07T11:06:58.452Z,6980
2017-09-07T11:08:08.805Z,6936
2017-09-07T11:09:18.879Z,7156
2017-09-07T11:10:29.242Z,7076
2017-09-07T11:11:39.582Z,10044
2017-09-07T11:12:50.000Z,7492
2017-09-07T11:14:00.026Z,9004
2017-09-07T11:15:10.385Z,10860
2017-09-07T11:16:20.772Z,7036
2017-09-07T11:17:30.815Z,7680
2017-09-07T11:18:40.854Z,7960
2017-09-07T11:19:51.201Z,7116
2017-09-07T11:21:01.271Z,9144
2017-09-07T11:22:11.908Z,7448
2017-09-07T11:23:21.947Z,7640
2017-09-07T11:24:32.357Z,7660
2017-09-07T11:25:42.377Z,8760
2017-09-07T11:26:52.744Z,9808
2017-09-07T11:28:03.125Z,7336
2017-09-07T11:29:13.483Z,6980
2017-09-07T11:30:23.827Z,7036
2017-09-07T11:31:34.177Z,6900
2017-09-07T11:32:44.547Z,7596
2017-09-07T11:33:54.578Z,7356
2017-09-07T11:35:04.928Z,8388
2017-09-07T11:36:14.955Z,7672
2017-09-07T11:37:25.307Z,7800
2017-09-07T11:38:35.339Z,7620
2017-09-07T11:39:45.374Z,7360
2017-09-07T11:40:55.727Z,7964
2017-09-07T11:42:06.376Z,7284
2017-09-07T11:43:16.782Z,7192
2017-09-07T11:44:27.151Z,6864
2017-09-07T11:45:37.192Z,6424
2017-09-07T11:46:47.541Z,6352
2017-09-07T11:47:59.042Z,6372
2017-09-07T11:49:09.397Z,6368
2017-09-07T11:50:19.749Z,6180
2017-09-07T11:51:30.102Z,6220
2017-09-07T11:52:40.459Z,6836
2017-09-07T11:53:50.853Z,6560
2017-09-07T11:55:01.207Z,6356
2017-09-07T11:56:11.569Z,6156
2017-09-07T11:57:21.915Z,6216
2017-09-07T11:58:32.258Z,6608
2017-09-07T11:59:42.370Z,6424
2017-09-07T12:00:52.726Z,6452
2017-09-07T12:02:03.073Z,6420
2017-09-07T12:03:13.116Z,6740
2017-09-07T12:04:23.148Z,6624
2017-09-07T12:05:33.241Z,6448
2017-09-07T12:06:43.529Z,6804
2017-09-07T12:07:53.946Z,8392
2017-09-07T12:09:03.980Z,8952
2017-09-07T12:10:14.310Z,6692
2017-09-07T12:11:24.656Z,7080
2017-09-07T12:12:34.684Z,6604
2017-09-07T12:13:45.039Z,6940
2017-09-07T12:14:55.079Z,6580
2017-09-07T12:16:05.438Z,6368
2017-09-07T12:17:15.535Z,6248
2017-09-07T12:18:25.566Z,6184
2017-09-07T12:19:35.599Z,6136
2017-09-07T12:20:45.631Z,6156
2017-09-07T12:21:57.141Z,6204
2017-09-07T12:23:07.496Z,6228
2017-09-07T12:24:17.875Z,6128
2017-09-07T12:25:28.254Z,6048
2017-09-07T12:26:39.050Z,6032
2017-09-07T12:27:49.408Z,6028
2017-09-07T12:28:59.822Z,6120
2017-09-07T12:30:09.537Z,6200
2017-09-07T12:31:19.877Z,6600
2017-09-07T12:32:29.581Z,6676
2017-09-07T12:33:39.950Z,6556
2017-09-07T12:34:50.322Z,6424
2017-09-07T12:36:00.670Z,6284
2017-09-07T12:37:11.055Z,6064
2017-09-07T12:38:21.415Z,5640
2017-09-07T12:39:31.446Z,4964
2017-09-07T12:40:41.798Z,4480
2017-09-07T12:41:52.189Z,4256
2017-09-07T12:43:02.244Z,4248
2017-09-07T12:44:12.616Z,4464
2017-09-07T12:45:22.964Z,4580
2017-09-07T12:46:33.370Z,4748
2017-09-07T12:47:45.312Z,4976
2017-09-07T12:48:55.683Z,5120
2017-09-07T12:50:06.065Z,5316
2017-09-07T12:51:18.171Z,5532
2017-09-07T12:52:43.331Z,5740
2017-09-07T12:53:53.689Z,5676
2017-09-07T12:55:03.746Z,5512
2017-09-07T12:56:14.095Z,5300
2017-09-07T12:57:24.443Z,8064
2017-09-07T12:58:34.562Z,5072
2017-09-07T12:59:44.610Z,7040
2017-09-07T13:00:54.660Z,5940
2017-09-07T13:02:05.035Z,6280
2017-09-07T13:03:15.407Z,4784
2017-09-07T13:04:26.016Z,4836
2017-09-07T13:05:36.388Z,5188
2017-09-07T13:06:46.742Z,6276
2017-09-07T13:07:57.092Z,7840
2017-09-07T13:09:07.139Z,5280
2017-09-07T13:10:17.489Z,7732
2017-09-07T13:11:27.534Z,7916
2017-09-07T13:12:37.882Z,7392
2017-09-07T13:13:48.255Z,7796
2017-09-07T13:14:58.282Z,7792
2017-09-07T13:16:08.981Z,7636
2017-09-07T13:17:19.336Z,7092
2017-09-07T13:18:31.758Z,5740
2017-09-07T13:19:42.134Z,5392
2017-09-07T13:20:52.523Z,5496
2017-09-07T13:22:02.971Z,5144
2017-09-07T13:23:13.059Z,4968
2017-09-07T13:24:23.469Z,4908
2017-09-07T13:25:33.824Z,4952
2017-09-07T13:26:43.863Z,4940
2017-09-07T13:27:53.652Z,4808
2017-09-07T13:29:03.719Z,4780
2017-09-07T13:30:14.019Z,5916
2017-09-07T13:31:24.390Z,4940
2017-09-07T13:32:34.736Z,5752
2017-09-07T13:33:45.140Z,5460
2017-09-07T13:34:55.512Z,4452
2017-09-07T13:36:05.891Z,4420
2017-09-07T13:37:16.256Z,4512
2017-09-07T13:38:26.357Z,5344
2017-09-07T13:39:36.123Z,5260
2017-09-07T13:40:46.173Z,5052
2017-09-07T13:41:56.215Z,5144
2017-09-07T13:43:06.564Z,5220
2017-09-07T13:44:16.907Z,5232
2017-09-07T13:45:28.669Z,5336
2017-09-07T13:46:38.392Z,5292
2017-09-07T13:47:48.736Z,5076
2017-09-07T13:48:59.104Z,4856
2017-09-07T13:50:09.473Z,4644
2017-09-07T13:51:19.987Z,4480
2017-09-07T13:52:30.352Z,4332
2017-09-07T13:53:40.707Z,4244
2017-09-07T13:54:50.775Z,4264
2017-09-07T13:56:00.826Z,4216
2017-09-07T13:57:10.921Z,4084
2017-09-07T13:58:20.968Z,4032
2017-09-07T13:59:31.347Z,4056
2017-09-07T14:00:41.419Z,4212
2017-09-07T14:01:51.756Z,4272
2017-09-07T14:03:02.141Z,3932
2017-09-07T14:04:12.521Z,6068
2017-09-07T14:05:22.886Z,3492
2017-09-07T14:06:34.889Z,3096
2017-09-07T14:07:45.279Z,2668
2017-09-07T14:08:55.842Z,2456
2017-09-07T14:10:05.567Z,2316
2017-09-07T14:11:15.633Z,2188
2017-09-07T14:12:25.981Z,2092
2017-09-07T14:13:36.337Z,1992
2017-09-07T14:14:46.433Z,1920
2017-09-07T14:15:56.470Z,1844
2017-09-07T14:17:06.835Z,1780
2017-09-07T14:18:17.267Z,1740
2017-09-07T14:19:27.639Z,1716
2017-09-07T14:20:38.054Z,1708
2017-09-07T14:21:48.614Z,1720
2017-09-07T14:22:58.970Z,1788
2017-09-07T14:24:09.323Z,1896
2017-09-07T14:25:19.684Z,2048
2017-09-07T14:26:30.053Z,2292
2017-09-07T14:27:40.395Z,2672
2017-09-07T14:28:50.439Z,3112
2017-09-07T14:30:00.802Z,3424
2017-09-07T14:31:11.178Z,3636
2017-09-07T14:32:21.539Z,3704
2017-09-07T14:33:31.900Z,3724
2017-09-07T14:34:42.262Z,3700
2017-09-07T14:35:52.314Z,3644
2017-09-07T14:37:02.027Z,3648
2017-09-07T14:38:12.451Z,3724
2017-09-07T14:39:22.478Z,3784
2017-09-07T14:40:32.848Z,3948
2017-09-07T14:41:43.259Z,4192
2017-09-07T14:42:54.894Z,4376
2017-09-07T14:44:05.249Z,4496
2017-09-07T14:45:15.626Z,5612
2017-09-07T14:46:25.656Z,6712
2017-09-07T14:47:35.696Z,6800
2017-09-07T14:48:46.050Z,6796
2017-09-07T14:49:56.438Z,6672
2017-09-07T14:51:06.807Z,6488
2017-09-07T14:52:17.170Z,6276
2017-09-07T14:53:27.550Z,5964
2017-09-07T14:54:37.911Z,5696
2017-09-07T14:55:48.019Z,5196
2017-09-07T14:56:58.439Z,5932
2017-09-07T14:58:08.859Z,5968
2017-09-07T14:59:19.250Z,6072
2017-09-07T15:00:29.295Z,6256
2017-09-07T15:01:39.717Z,5716
2017-09-07T15:02:49.766Z,5864
2017-09-07T15:04:00.163Z,4416
2017-09-07T15:05:10.518Z,4460
2017-09-07T15:06:20.877Z,5444
2017-09-07T15:07:30.963Z,5052
2017-09-07T15:08:40.996Z,5540
2017-09-07T15:09:51.019Z,5884
2017-09-07T15:11:01.061Z,5804
2017-09-07T15:12:11.440Z,5776
2017-09-07T15:13:21.842Z,5464
2017-09-07T15:14:31.889Z,5400
2017-09-07T15:15:41.918Z,5524
2017-09-07T15:16:52.267Z,5360
2017-09-07T15:18:02.645Z,5200
2017-09-07T15:19:12.433Z,4916
2017-09-07T15:20:22.164Z,4860
2017-09-07T15:21:32.202Z,4416
2017-09-07T15:22:42.580Z,4528
2017-09-07T15:23:52.955Z,4248
2017-09-07T15:25:03.020Z,4660
2017-09-07T15:26:13.068Z,4584
2017-09-07T15:27:23.424Z,4548
2017-09-07T15:28:33.799Z,4484
2017-09-07T15:29:43.839Z,4340
2017-09-07T15:30:54.248Z,4208
2017-09-07T15:32:06.079Z,3792
2017-09-07T15:33:16.466Z,3232
2017-09-07T15:34:26.849Z,3484
2017-09-07T15:35:37.220Z,3468
2017-09-07T15:36:47.612Z,3616
2017-09-07T15:37:57.989Z,3776
2017-09-07T15:39:08.341Z,3664
2017-09-07T15:40:18.706Z,3664
2017-09-07T15:41:29.080Z,3492
2017-09-07T15:42:39.461Z,3652
2017-09-07T15:43:49.838Z,3484
2017-09-07T15:45:00.641Z,3460
2017-09-07T15:46:11.020Z,3280
2017-09-07T15:47:21.391Z,2120
2017-09-07T15:48:31.498Z,3072
2017-09-07T15:49:41.863Z,2956
2017-09-07T15:50:51.946Z,3112
2017-09-07T15:52:02.311Z,2988
2017-09-07T15:53:12.697Z,3044
2017-09-07T15:54:23.115Z,2916
2017-09-07T15:55:33.180Z,2968
2017-09-07T15:56:43.793Z,2424
2017-09-07T15:57:54.174Z,2780
2017-09-07T15:59:04.539Z,2700
2017-09-07T16:00:14.695Z,2584
2017-09-07T16:01:25.081Z,2664
2017-09-07T16:02:35.130Z,2732
2017-09-07T16:03:45.518Z,2820
2017-09-07T16:04:55.901Z,2740
2017-09-07T16:06:06.264Z,2756
2017-09-07T16:07:16.309Z,2656
2017-09-07T16:08:26.665Z,2592
2017-09-07T16:09:37.014Z,2484
2017-09-07T16:10:47.056Z,2592
2017-09-07T16:11:57.491Z,2552
2017-09-07T16:13:07.847Z,2476
2017-09-07T16:14:18.199Z,2424
2017-09-07T16:15:28.297Z,2348
2017-09-07T16:16:38.338Z,2084
2017-09-07T16:17:48.440Z,2180
2017-09-07T16:18:58.827Z,2132
2017-09-07T16:20:09.208Z,2032
2017-09-07T16:21:19.590Z,1964
2017-09-07T16:22:29.653Z,1896
2017-09-07T16:23:40.029Z,1864
2017-09-07T16:24:50.384Z,1764
2017-09-07T16:26:00.441Z,1800
2017-09-07T16:27:10.811Z,1768
2017-09-07T16:28:21.167Z,1720
2017-09-07T16:29:31.211Z,1668
2017-09-07T16:30:41.251Z,1640
2017-09-07T16:31:51.292Z,1592
2017-09-07T16:33:01.708Z,1552
2017-09-07T16:34:11.733Z,1508
2017-09-07T16:35:22.173Z,1468
2017-09-07T16:36:32.550Z,1400
2017-09-07T16:37:42.597Z,1372
2017-09-07T16:38:53.087Z,1324
2017-09-07T16:40:03.459Z,1292